createdAt,value
2022-08-07T00:00:26.637Z,2.40
2022-08-07T00:02:58.445Z,2.45
2022-08-07T00:05:28.255Z,2.33
2022-08-07T00:08:00.116Z,2.42
2022-08-07T00:10:31.490Z,2.30
2022-08-07T00:13:09.910Z,2.55
2022-08-07T00:15:52.367Z,2.60
2022-08-07T00:18:25.310Z,2.65
2022-08-07T00:21:02.076Z,2.80
2022-08-07T00:23:32.579Z,2.50
2022-08-07T00:26:13.175Z,2.40
2022-08-07T00:28:56.524Z,2.78
2022-08-07T00:31:26.182Z,2.80
2022-08-07T00:34:13.675Z,2.83
2022-08-07T00:36:46.697Z,2.38
2022-08-07T00:39:16.924Z,2.72
2022-08-07T00:42:02.121Z,2.50
2022-08-07T00:44:34.835Z,2.50
2022-08-07T00:47:15.795Z,2.83
2022-08-07T00:50:20.419Z,2.53
2022-08-07T00:52:47.443Z,3.00
2022-08-07T00:55:17.508Z,3.05
2022-08-07T00:57:55.419Z,2.78
2022-08-07T01:00:24.751Z,3.03
2022-08-07T01:02:52.730Z,2.80
2022-08-07T01:05:24.433Z,2.67
2022-08-07T01:07:53.230Z,2.75
2022-08-07T01:10:23.551Z,2.85
2022-08-07T01:12:54.638Z,2.78
2022-08-07T01:15:35.698Z,2.83
2022-08-07T01:18:16.661Z,2.95
2022-08-07T01:21:22.555Z,2.92
2022-08-07T01:26:22.770Z,2.97
2022-08-07T01:28:54.704Z,3.22
2022-08-07T01:31:41.709Z,3.30
2022-08-07T01:34:14.289Z,2.70
2022-08-07T01:36:44.357Z,2.70
2022-08-07T01:39:39.709Z,3.78
2022-08-07T01:42:37.696Z,3.40
2022-08-07T01:45:15.926Z,3.40
2022-08-07T01:48:18.585Z,3.50
2022-08-07T01:50:43.154Z,3.50
2022-08-07T01:53:21.581Z,3.33
2022-08-07T01:56:03.415Z,3.20
2022-08-07T01:58:41.087Z,3.20
2022-08-07T02:01:25.689Z,3.67
2022-08-07T02:04:16.302Z,3.53
2022-08-07T02:06:49.006Z,3.65
2022-08-07T02:09:33.468Z,3.45
2022-08-07T02:12:19.833Z,3.70
2022-08-07T02:15:00.839Z,3.67
2022-08-07T02:17:57.481Z,3.40
2022-08-07T02:20:30.182Z,3.80
2022-08-07T02:23:02.662Z,4.40
2022-08-07T02:26:30.506Z,3.72
2022-08-07T02:28:24.650Z,4.35
2022-08-07T02:30:59.075Z,3.92
2022-08-07T02:33:41.964Z,4.20
2022-08-07T02:36:30.777Z,3.90
2022-08-07T02:39:16.546Z,4.40
2022-08-07T02:41:58.137Z,4.05
2022-08-07T02:44:34.814Z,3.67
2022-08-07T02:47:08.063Z,4.03
2022-08-07T02:49:56.302Z,4.10
2022-08-07T02:52:39.086Z,3.78
2022-08-07T02:55:28.740Z,3.85
2022-08-07T02:58:13.507Z,4.55
2022-08-07T03:00:46.704Z,4.43
2022-08-07T03:03:22.604Z,4.25
2022-08-07T03:05:56.557Z,4.18
2022-08-07T03:08:26.820Z,4.18
2022-08-07T03:10:59.590Z,3.83
2022-08-07T03:13:39.239Z,4.20
2022-08-07T03:16:18.659Z,4.40
2022-08-07T03:18:53.123Z,4.32
2022-08-07T03:21:24.471Z,4.32
2022-08-07T03:24:21.220Z,4.13
2022-08-07T03:26:58.871Z,4.53
2022-08-07T03:29:44.570Z,4.50
2022-08-07T03:32:23.123Z,4.30
2022-08-07T03:35:17.032Z,4.50
2022-08-07T03:37:55.095Z,4.90
2022-08-07T03:40:31.081Z,4.38
2022-08-07T03:43:13.565Z,4.75
2022-08-07T03:45:47.861Z,4.22
2022-08-07T03:48:20.134Z,4.43
2022-08-07T03:50:52.073Z,5.07
2022-08-07T03:53:30.239Z,4.55
2022-08-07T03:56:33.619Z,4.63
2022-08-07T03:59:10.030Z,4.47
2022-08-07T04:01:49.809Z,4.28
2022-08-07T04:04:23.092Z,4.60
2022-08-07T04:06:58.000Z,4.97
2022-08-07T04:09:44.739Z,4.65
2022-08-07T04:12:24.514Z,4.40
2022-08-07T04:14:59.405Z,4.47
2022-08-07T04:18:11.300Z,4.88
2022-08-07T04:20:19.655Z,4.97
2022-08-07T04:22:53.561Z,4.65
2022-08-07T04:25:41.007Z,5.63
2022-08-07T04:28:13.183Z,5.18
2022-08-07T04:30:55.339Z,5.25
2022-08-07T04:33:30.873Z,5.00
2022-08-07T04:35:59.830Z,5.25
2022-08-07T04:38:30.821Z,5.07
2022-08-07T04:40:59.722Z,4.50
2022-08-07T04:44:09.865Z,4.57
2022-08-07T04:47:05.010Z,4.38
2022-08-07T04:50:04.008Z,4.50
2022-08-07T04:53:00.064Z,4.82
2022-08-07T04:58:16.932Z,4.72
2022-08-07T05:00:12.490Z,4.47
2022-08-07T05:02:20.864Z,4.07
2022-08-07T05:05:52.728Z,4.95
2022-08-07T05:08:08.433Z,5.13
2022-08-07T05:10:58.538Z,4.90
2022-08-07T05:14:56.174Z,5.07
2022-08-07T05:16:32.018Z,4.78
2022-08-07T05:19:15.607Z,4.72
2022-08-07T05:22:00.564Z,5.13
2022-08-07T05:24:39.703Z,5.07
2022-08-07T05:27:14.533Z,4.93
2022-08-07T05:30:02.270Z,4.95
2022-08-07T05:32:32.021Z,5.60
2022-08-07T05:35:02.228Z,5.20
2022-08-07T05:37:31.768Z,5.45
2022-08-07T05:40:18.710Z,5.50
2022-08-07T05:42:56.349Z,4.85
2022-08-07T05:45:47.756Z,5.70
2022-08-07T05:48:26.386Z,6.10
2022-08-07T05:51:01.103Z,5.45
2022-08-07T05:54:12.144Z,5.78
2022-08-07T05:56:20.725Z,5.95
2022-08-07T05:59:09.201Z,6.07
2022-08-07T06:01:41.275Z,6.50
2022-08-07T06:04:10.418Z,6.03
2022-08-07T06:06:46.380Z,5.95
2022-08-07T06:09:18.026Z,6.30
2022-08-07T06:11:49.863Z,6.70
2022-08-07T06:14:20.811Z,6.97
2022-08-07T06:16:56.329Z,6.95
2022-08-07T06:19:47.981Z,6.70
2022-08-07T06:22:27.126Z,7.47
2022-08-07T06:25:11.015Z,6.93
2022-08-07T06:28:00.566Z,7.15
2022-08-07T06:30:36.133Z,7.50
2022-08-07T06:33:16.564Z,7.07
2022-08-07T06:36:12.245Z,7.20
2022-08-07T06:38:59.230Z,7.50
2022-08-07T06:42:02.903Z,7.05
2022-08-07T06:44:51.859Z,7.38
2022-08-07T06:47:22.338Z,7.38
2022-08-07T06:49:58.454Z,7.75
2022-08-07T06:52:38.363Z,7.60
2022-08-07T06:55:34.299Z,7.38
2022-08-07T06:58:12.409Z,7.07
2022-08-07T07:00:52.830Z,7.97
2022-08-07T07:03:39.564Z,7.20
2022-08-07T07:06:13.005Z,7.50
2022-08-07T07:08:46.675Z,7.30
2022-08-07T07:12:08.162Z,7.72
2022-08-07T07:14:08.605Z,7.45
2022-08-07T07:16:49.445Z,6.78
2022-08-07T07:19:55.922Z,7.50
2022-08-07T07:22:36.639Z,7.70
2022-08-07T07:26:33.236Z,7.47
2022-08-07T07:28:42.826Z,7.25
2022-08-07T07:31:25.137Z,7.13
2022-08-07T07:34:03.683Z,6.13
2022-08-07T07:36:33.751Z,6.63
2022-08-07T07:39:04.283Z,7.30
2022-08-07T07:42:01.972Z,7.88
2022-08-07T07:44:26.017Z,7.22
2022-08-07T07:47:09.294Z,7.50
2022-08-07T07:50:33.286Z,6.55
2022-08-07T07:52:36.491Z,6.45
2022-08-07T07:55:06.622Z,6.93
2022-08-07T07:57:51.518Z,6.88
2022-08-07T08:00:29.713Z,6.75
2022-08-07T08:03:09.243Z,5.78
2022-08-07T08:05:54.392Z,5.68
2022-08-07T08:08:34.549Z,5.63
2022-08-07T08:11:07.965Z,5.00
2022-08-07T08:13:52.946Z,4.72
2022-08-07T08:18:36.907Z,5.18
2022-08-07T08:20:15.999Z,4.00
2022-08-07T08:22:33.086Z,4.18
2022-08-07T08:25:42.156Z,4.28
2022-08-07T08:28:16.870Z,4.80
2022-08-07T08:30:59.943Z,4.53
2022-08-07T08:33:34.206Z,3.88
2022-08-07T08:36:03.407Z,3.88
2022-08-07T08:38:44.581Z,4.07
2022-08-07T08:41:58.533Z,3.75
2022-08-07T08:44:35.489Z,3.60
2022-08-07T08:47:17.226Z,4.10
2022-08-07T08:50:08.194Z,4.00
2022-08-07T08:53:01.673Z,3.70
2022-08-07T08:55:54.954Z,4.07
2022-08-07T08:58:57.970Z,3.85
2022-08-07T09:01:39.811Z,3.80
2022-08-07T09:04:31.658Z,3.40
2022-08-07T09:07:45.919Z,3.47
2022-08-07T09:10:20.335Z,3.33
2022-08-07T09:13:37.741Z,3.30
2022-08-07T09:16:21.956Z,3.55
2022-08-07T09:19:53.387Z,3.28
2022-08-07T09:24:35.041Z,2.97
2022-08-07T09:26:10.069Z,3.05
2022-08-07T09:30:01.699Z,2.90
2022-08-07T09:31:48.659Z,2.42
2022-08-07T09:34:38.310Z,2.53
2022-08-07T09:37:20.541Z,2.67
2022-08-07T09:40:17.941Z,2.55
2022-08-07T09:43:09.872Z,2.90
2022-08-07T09:47:50.518Z,2.83
2022-08-07T09:50:01.876Z,2.92
2022-08-07T09:52:34.633Z,2.55
2022-08-07T09:55:29.475Z,2.78
2022-08-07T09:58:32.233Z,2.72
2022-08-07T10:01:51.819Z,2.67
2022-08-07T10:04:28.351Z,2.60
2022-08-07T10:07:39.732Z,2.97
2022-08-07T10:10:28.690Z,2.92
2022-08-07T10:13:55.041Z,3.05
2022-08-07T10:16:41.905Z,2.50
2022-08-07T10:19:37.652Z,2.70
2022-08-07T10:22:46.328Z,2.78
2022-08-07T10:25:43.224Z,2.53
2022-08-07T10:28:38.787Z,2.38
2022-08-07T10:31:45.268Z,2.72
2022-08-07T10:34:48.905Z,2.80
2022-08-07T10:38:00.716Z,2.80
2022-08-07T10:40:40.145Z,2.42
2022-08-07T10:43:19.351Z,2.73
2022-08-07T10:46:07.759Z,2.80
2022-08-07T10:48:46.511Z,2.90
2022-08-07T10:51:57.250Z,2.83
2022-08-07T10:54:26.839Z,3.85
2022-08-07T10:57:29.485Z,2.85
2022-08-07T11:00:36.892Z,2.90
2022-08-07T11:03:13.119Z,2.80
2022-08-07T11:05:50.501Z,2.85
2022-08-07T11:08:44.122Z,2.80
2022-08-07T11:11:27.164Z,2.80
2022-08-07T11:14:46.196Z,2.50
2022-08-07T11:17:43.212Z,2.40
2022-08-07T11:20:24.536Z,2.17
2022-08-07T11:23:20.553Z,2.22
2022-08-07T11:26:24.935Z,2.65
2022-08-07T11:29:13.223Z,2.47
2022-08-07T11:32:15.155Z,2.10
2022-08-07T11:35:09.432Z,2.33
2022-08-07T11:38:12.450Z,2.13
2022-08-07T11:41:06.355Z,2.30
2022-08-07T11:44:11.335Z,2.20
2022-08-07T11:47:26.115Z,2.33
2022-08-07T11:50:44.729Z,2.40
2022-08-07T11:54:00.815Z,2.33
2022-08-07T11:56:40.709Z,2.30
2022-08-07T12:00:10.248Z,2.20
2022-08-07T12:02:31.288Z,2.55
2022-08-07T12:05:09.035Z,2.28
2022-08-07T12:08:00.600Z,2.30
2022-08-07T12:11:08.109Z,2.35
2022-08-07T12:13:58.540Z,2.20
2022-08-07T12:16:31.053Z,2.20
2022-08-07T12:19:21.450Z,2.15
2022-08-07T12:22:39.342Z,2.15
2022-08-07T12:28:34.923Z,2.25
2022-08-07T12:31:11.388Z,2.33
2022-08-07T12:34:01.238Z,2.30
2022-08-07T12:36:33.569Z,2.35
2022-08-07T12:39:09.540Z,2.35
2022-08-07T12:41:55.016Z,2.22
2022-08-07T12:44:25.891Z,2.10
2022-08-07T12:47:06.984Z,2.10
2022-08-07T12:50:04.371Z,2.00
2022-08-07T12:52:52.342Z,2.10
2022-08-07T12:56:02.062Z,2.17
2022-08-07T12:58:39.586Z,1.90
2022-08-07T13:01:35.812Z,1.63
2022-08-07T13:04:34.067Z,2.03
2022-08-07T13:08:12.246Z,1.85
2022-08-07T13:10:39.563Z,1.88
2022-08-07T13:13:47.558Z,2.00
2022-08-07T13:16:22.757Z,2.20
2022-08-07T13:19:21.849Z,1.90
2022-08-07T13:22:12.783Z,1.90
2022-08-07T13:25:02.953Z,1.95
2022-08-07T13:28:12.433Z,1.90
2022-08-07T13:30:41.246Z,1.65
2022-08-07T13:34:34.583Z,1.80
2022-08-07T13:36:46.856Z,1.83
2022-08-07T13:40:34.232Z,1.90
2022-08-07T13:42:25.525Z,1.70
2022-08-07T13:46:07.163Z,1.60
2022-08-07T13:48:08.077Z,1.70
2022-08-07T13:50:44.495Z,1.80
2022-08-07T13:53:45.734Z,1.88
2022-08-07T13:56:36.256Z,1.60
2022-08-07T13:59:15.668Z,1.70
2022-08-07T14:04:35.999Z,2.13
2022-08-07T14:07:10.746Z,1.90
2022-08-07T14:10:02.304Z,2.23
2022-08-07T14:12:36.304Z,2.10
2022-08-07T14:15:23.864Z,2.28
2022-08-07T14:18:27.135Z,2.17
2022-08-07T14:20:48.815Z,2.10
2022-08-07T14:24:00.493Z,1.90
2022-08-07T14:26:30.353Z,1.90
2022-08-07T14:29:08.859Z,2.00
2022-08-07T14:31:59.264Z,2.10
2022-08-07T14:34:32.842Z,2.00
2022-08-07T14:37:03.381Z,2.30
2022-08-07T14:42:32.638Z,1.75
2022-08-07T14:45:21.663Z,2.00
2022-08-07T14:47:52.989Z,1.65
2022-08-07T14:54:09.847Z,1.75
2022-08-07T14:56:13.890Z,1.70
2022-08-07T14:58:45.211Z,1.90
2022-08-07T15:04:06.933Z,1.77
2022-08-07T15:06:39.136Z,1.45
2022-08-07T15:10:00.001Z,1.50
2022-08-07T15:12:09.320Z,1.90
2022-08-07T15:14:56.051Z,1.48
2022-08-07T15:17:54.603Z,1.42
2022-08-07T15:20:33.291Z,1.40
2022-08-07T15:23:16.959Z,1.38
2022-08-07T15:25:56.912Z,1.65
2022-08-07T15:28:36.192Z,1.40
2022-08-07T15:32:01.275Z,1.52
2022-08-07T15:34:15.001Z,1.40
2022-08-07T15:37:03.284Z,2.17
2022-08-07T15:39:56.853Z,1.38
2022-08-07T15:42:52.817Z,1.20
2022-08-07T15:45:56.545Z,1.40
2022-08-07T15:48:33.275Z,1.50
2022-08-07T15:51:10.032Z,1.67
2022-08-07T15:53:53.619Z,1.10
2022-08-07T15:56:41.680Z,1.25
2022-08-07T15:59:16.326Z,1.20
2022-08-07T16:02:01.669Z,1.20
2022-08-07T16:04:33.743Z,1.48
2022-08-07T16:08:28.445Z,1.35
2022-08-07T16:10:14.304Z,1.60
2022-08-07T16:13:57.685Z,1.50
2022-08-07T16:16:56.842Z,1.40
2022-08-07T16:19:59.778Z,1.70
2022-08-07T16:23:09.844Z,1.60
2022-08-07T16:26:01.648Z,1.38
2022-08-07T16:29:18.640Z,1.38
2022-08-07T16:32:02.223Z,1.40
2022-08-07T16:34:48.622Z,1.73
2022-08-07T16:38:04.140Z,1.83
2022-08-07T16:41:05.542Z,1.60
2022-08-07T16:44:53.649Z,1.80
2022-08-07T16:47:27.355Z,1.70
2022-08-07T16:50:38.815Z,1.77
2022-08-07T16:54:02.168Z,1.50
2022-08-07T16:56:38.831Z,2.10
2022-08-07T16:59:47.403Z,2.05
2022-08-07T17:02:52.222Z,2.80
2022-08-07T17:06:18.945Z,1.88
2022-08-07T17:09:10.789Z,1.60
2022-08-07T17:12:04.553Z,1.92
2022-08-07T17:14:55.684Z,2.05
2022-08-07T17:17:48.497Z,1.90
2022-08-07T17:20:31.764Z,1.98
2022-08-07T17:23:32.590Z,1.92
2022-08-07T17:26:29.846Z,2.03
2022-08-07T17:29:18.338Z,1.80
2022-08-07T17:32:51.875Z,2.17
2022-08-07T17:35:55.693Z,2.13
2022-08-07T17:38:50.983Z,1.85
2022-08-07T17:42:02.104Z,3.58
2022-08-07T17:44:49.971Z,2.47
2022-08-07T17:47:38.506Z,2.20
2022-08-07T17:50:30.668Z,2.13
2022-08-07T17:53:09.109Z,1.85
2022-08-07T17:56:28.944Z,2.08
2022-08-07T17:59:10.142Z,2.13
2022-08-07T18:02:00.347Z,2.40
2022-08-07T18:04:43.513Z,2.20
2022-08-07T18:07:34.012Z,1.92
2022-08-07T18:12:16.598Z,1.80
2022-08-07T18:16:31.078Z,2.45
2022-08-07T18:21:08.707Z,2.70
2022-08-07T18:22:31.866Z,2.63
2022-08-07T18:25:19.463Z,2.83
2022-08-07T18:28:35.717Z,2.22
2022-08-07T18:31:40.552Z,2.58
2022-08-07T18:35:00.952Z,2.40
2022-08-07T18:38:57.224Z,2.50
2022-08-07T18:41:16.738Z,2.08
2022-08-07T18:44:10.629Z,2.50
2022-08-07T18:47:04.245Z,2.22
2022-08-07T18:50:29.986Z,2.60
2022-08-07T18:52:53.902Z,2.55
2022-08-07T18:55:41.974Z,2.53
2022-08-07T18:58:34.648Z,2.70
2022-08-07T19:02:20.043Z,2.10
2022-08-07T19:04:57.764Z,2.53
2022-08-07T19:08:12.823Z,2.53
2022-08-07T19:10:59.493Z,2.30
2022-08-07T19:13:50.300Z,2.60
2022-08-07T19:17:01.494Z,2.33
2022-08-07T19:19:49.660Z,2.30
2022-08-07T19:22:39.834Z,2.40
2022-08-07T19:26:21.866Z,2.13
2022-08-07T19:28:30.059Z,2.40
2022-08-07T19:31:42.759Z,2.70
2022-08-07T19:34:14.623Z,2.15
2022-08-07T19:37:16.946Z,2.80
2022-08-07T19:39:57.782Z,2.60
2022-08-07T19:42:40.453Z,2.47
2022-08-07T19:46:04.874Z,2.35
2022-08-07T19:48:18.718Z,2.65
2022-08-07T19:50:54.352Z,2.40
2022-08-07T19:54:32.247Z,2.60
2022-08-07T19:57:56.779Z,2.70
2022-08-07T19:59:22.761Z,2.50
2022-08-07T20:02:19.217Z,2.65
2022-08-07T20:05:04.015Z,2.70
2022-08-07T20:07:47.380Z,2.92
2022-08-07T20:10:36.214Z,2.88
2022-08-07T20:13:27.059Z,3.13
2022-08-07T20:18:34.342Z,2.85
2022-08-07T20:21:14.816Z,3.13
2022-08-07T20:24:01.057Z,2.80
2022-08-07T20:26:32.644Z,3.20
2022-08-07T20:29:17.009Z,2.90
2022-08-07T20:32:11.428Z,3.13
2022-08-07T20:34:57.772Z,2.90
2022-08-07T20:37:46.806Z,3.20
2022-08-07T20:40:33.024Z,3.13
2022-08-07T20:43:14.859Z,3.83
2022-08-07T20:46:28.667Z,3.30
2022-08-07T20:49:54.582Z,3.50
2022-08-07T20:51:40.442Z,3.40
2022-08-07T20:54:29.615Z,3.22
2022-08-07T20:57:03.787Z,3.20
2022-08-07T21:00:06.735Z,3.42
2022-08-07T21:02:54.200Z,3.55
2022-08-07T21:05:51.233Z,3.78
2022-08-07T21:08:37.696Z,3.53
2022-08-07T21:11:22.012Z,3.33
2022-08-07T21:14:32.820Z,3.33
2022-08-07T21:18:00.741Z,3.47
2022-08-07T21:19:51.798Z,4.00
2022-08-07T21:22:51.204Z,3.88
2022-08-07T21:25:38.883Z,3.85
2022-08-07T21:28:49.556Z,3.67
2022-08-07T21:31:31.441Z,3.72
2022-08-07T21:34:21.384Z,3.88
2022-08-07T21:37:57.305Z,4.07
2022-08-07T21:40:47.429Z,4.25
2022-08-07T21:43:55.426Z,3.92
2022-08-07T21:46:38.430Z,4.75
2022-08-07T21:49:26.877Z,4.22
2022-08-07T21:52:32.790Z,5.03
2022-08-07T21:55:30.760Z,4.20
2022-08-07T21:58:30.476Z,4.57
2022-08-07T22:01:08.519Z,4.60
2022-08-07T22:03:51.678Z,4.75
2022-08-07T22:06:30.780Z,4.40
2022-08-07T22:09:10.324Z,4.63
2022-08-07T22:12:05.648Z,4.68
2022-08-07T22:15:00.094Z,4.82
2022-08-07T22:17:37.737Z,5.35
2022-08-07T22:20:50.584Z,4.95
2022-08-07T22:23:52.604Z,5.07
2022-08-07T22:26:45.035Z,5.07
2022-08-07T22:29:33.747Z,5.32
2022-08-07T22:32:20.088Z,4.68
2022-08-07T22:34:53.703Z,5.18
2022-08-07T22:38:03.694Z,5.35
2022-08-07T22:41:02.937Z,4.93
2022-08-07T22:43:51.314Z,5.00
2022-08-07T22:47:03.650Z,5.57
2022-08-07T22:49:59.759Z,4.85
2022-08-07T22:53:10.174Z,5.28
2022-08-07T22:55:46.218Z,5.05
2022-08-07T22:58:44.507Z,5.20
2022-08-07T23:01:49.898Z,5.38
2022-08-07T23:04:30.648Z,4.95
2022-08-07T23:07:04.944Z,4.55
2022-08-07T23:10:38.166Z,4.95
2022-08-07T23:13:20.587Z,5.38
2022-08-07T23:16:46.343Z,4.47
2022-08-07T23:20:00.092Z,5.30
2022-08-07T23:22:55.800Z,4.88
2022-08-07T23:25:53.598Z,4.80
2022-08-07T23:28:44.299Z,5.38
2022-08-07T23:32:48.919Z,4.90
2022-08-07T23:34:43.369Z,5.40
2022-08-07T23:37:29.890Z,5.13
2022-08-07T23:40:51.917Z,5.10
2022-08-07T23:43:38.258Z,5.30
2022-08-07T23:46:23.860Z,6.43
2022-08-07T23:49:04.461Z,5.47
2022-08-07T23:53:06.716Z,5.13
2022-08-07T23:54:57.684Z,5.10
2022-08-07T23:57:36.506Z,5.43
